createdAt,value
2022-09-05T00:00:32.296Z,55.50
2022-09-05T00:04:25.776Z,55.65
2022-09-05T00:08:21.086Z,55.65
2022-09-05T00:12:10.465Z,55.71
2022-09-05T00:16:07.146Z,55.98
2022-09-05T00:24:21.740Z,56.15
2022-09-05T00:24:45.618Z,56.17
2022-09-05T00:28:33.896Z,56.51
2022-09-05T00:32:49.288Z,56.43
2022-09-05T00:36:41.821Z,56.69
2022-09-05T00:40:34.350Z,56.68
2022-09-05T00:44:33.053Z,56.42
2022-09-05T00:48:35.016Z,56.70
2022-09-05T00:52:50.475Z,56.47
2022-09-05T00:57:28.382Z,56.65
2022-09-05T01:01:30.584Z,56.51
2022-09-05T01:05:32.795Z,56.75
2022-09-05T01:09:46.711Z,56.81
2022-09-05T01:13:42.107Z,56.64
2022-09-05T01:17:39.569Z,56.77
2022-09-05T01:22:10.181Z,56.89
2022-09-05T01:26:10.212Z,56.97
2022-09-05T01:30:05.996Z,57.16
2022-09-05T01:33:58.370Z,57.08
2022-09-05T01:37:54.498Z,57.12
2022-09-05T01:42:00.484Z,57.30
2022-09-05T01:45:53.839Z,57.48
2022-09-05T01:49:55.641Z,57.35
2022-09-05T01:54:10.169Z,57.59
2022-09-05T01:58:21.455Z,57.74
2022-09-05T02:02:22.650Z,57.79
2022-09-05T02:06:35.752Z,58.01
2022-09-05T02:10:41.565Z,57.99
2022-09-05T02:14:42.310Z,58.36
2022-09-05T02:18:39.197Z,58.42
2022-09-05T02:22:29.725Z,58.25
2022-09-05T02:26:31.088Z,58.56
2022-09-05T02:30:27.819Z,58.47
2022-09-05T02:34:16.873Z,58.60
2022-09-05T02:42:17.166Z,58.70
2022-09-05T02:45:10.683Z,58.72
2022-09-05T02:46:51.000Z,58.95
2022-09-05T02:53:46.956Z,59.24
2022-09-05T02:57:42.652Z,59.35
2022-09-05T02:59:13.218Z,59.12
2022-09-05T03:03:18.597Z,59.46
2022-09-05T03:07:15.979Z,59.64
2022-09-05T03:11:27.472Z,59.51
2022-09-05T03:15:45.066Z,59.64
2022-09-05T03:20:08.042Z,59.65
2022-09-05T03:24:12.646Z,60.18
2022-09-05T03:28:36.334Z,59.80
2022-09-05T03:32:53.203Z,60.09
2022-09-05T03:37:38.444Z,60.33
2022-09-05T03:41:40.460Z,60.32
2022-09-05T03:45:54.753Z,60.37
2022-09-05T03:57:07.576Z,60.36
2022-09-05T03:57:13.298Z,60.71
2022-09-05T03:59:07.216Z,60.17
2022-09-05T04:08:09.386Z,60.13
2022-09-05T04:08:30.602Z,60.14
2022-09-05T04:11:37.732Z,60.26
2022-09-05T04:15:34.312Z,60.15
2022-09-05T04:19:26.966Z,59.74
2022-09-05T04:23:31.102Z,59.84
2022-09-05T04:27:36.648Z,59.92
2022-09-05T04:31:31.795Z,59.77
2022-09-05T04:35:35.275Z,59.80
2022-09-05T04:39:30.515Z,59.72
2022-09-05T04:43:27.542Z,59.70
2022-09-05T04:47:17.032Z,59.72
2022-09-05T04:51:11.466Z,59.38
2022-09-05T04:55:03.220Z,59.08
2022-09-05T05:01:56.028Z,58.87
2022-09-05T05:06:10.850Z,58.45
2022-09-05T05:07:18.195Z,57.90
2022-09-05T05:14:45.867Z,57.25
2022-09-05T05:18:15.467Z,56.23
2022-09-05T05:19:29.419Z,55.53
2022-09-05T05:23:18.052Z,54.25
2022-09-05T05:27:11.068Z,53.58
2022-09-05T05:31:01.259Z,52.27
2022-09-05T05:34:49.993Z,51.80
2022-09-05T05:38:45.113Z,50.79
2022-09-05T05:42:29.598Z,50.14
2022-09-05T05:46:24.512Z,49.55
2022-09-05T05:50:19.710Z,49.20
2022-09-05T05:54:15.385Z,48.85
2022-09-05T05:58:15.307Z,47.59
2022-09-05T06:02:34.674Z,47.24
2022-09-05T06:06:33.776Z,47.37
2022-09-05T06:15:03.764Z,46.35
2022-09-05T06:15:28.094Z,45.74
2022-09-05T06:19:43.640Z,45.33
2022-09-05T06:24:40.111Z,45.24
2022-09-05T06:28:37.891Z,44.00
2022-09-05T06:32:36.728Z,44.05
2022-09-05T06:36:44.002Z,43.49
2022-09-05T06:40:34.488Z,43.38
2022-09-05T06:44:40.294Z,43.33
2022-09-05T06:48:44.333Z,42.53
2022-09-05T06:53:08.288Z,42.69
2022-09-05T06:57:21.407Z,41.91
2022-09-05T07:01:08.773Z,41.58
2022-09-05T07:05:36.891Z,41.40
2022-09-05T07:09:23.638Z,40.81
2022-09-05T07:13:19.695Z,40.62
2022-09-05T07:17:11.051Z,40.40
2022-09-05T07:21:16.471Z,40.63
2022-09-05T07:25:08.624Z,41.29
2022-09-05T07:28:59.710Z,40.38
2022-09-05T07:32:45.888Z,40.16
2022-09-05T07:36:39.770Z,40.53
2022-09-05T07:40:26.939Z,40.61
2022-09-05T07:44:17.302Z,40.73
2022-09-05T07:48:09.941Z,40.81
2022-09-05T07:56:48.159Z,41.10
2022-09-05T07:57:02.241Z,41.03
2022-09-05T08:00:27.143Z,40.82
2022-09-05T08:04:23.678Z,40.49
2022-09-05T08:08:14.323Z,39.94
2022-09-05T08:12:09.625Z,39.76
2022-09-05T08:16:13.158Z,39.57
2022-09-05T08:20:10.569Z,39.72
2022-09-05T08:24:00.046Z,39.53
2022-09-05T08:27:58.847Z,39.42
2022-09-05T08:31:49.292Z,39.52
2022-09-05T08:35:39.684Z,39.15
2022-09-05T08:39:26.714Z,39.09
2022-09-05T08:44:39.419Z,38.74
2022-09-05T08:47:45.602Z,39.44
2022-09-05T08:51:41.839Z,38.42
2022-09-05T08:55:46.681Z,38.89
2022-09-05T09:00:19.299Z,38.68
2022-09-05T09:04:11.411Z,38.35
2022-09-05T09:08:04.144Z,38.50
2022-09-05T09:11:56.184Z,38.97
2022-09-05T09:15:47.683Z,38.21
2022-09-05T09:19:46.709Z,38.69
2022-09-05T09:23:46.262Z,38.42
2022-09-05T09:28:33.596Z,38.43
2022-09-05T09:32:00.028Z,38.53
2022-09-05T09:35:51.247Z,37.92
2022-09-05T09:39:53.264Z,37.96
2022-09-05T09:43:58.349Z,37.59
2022-09-05T09:48:06.285Z,36.88
2022-09-05T09:52:02.427Z,36.25
2022-09-05T09:56:27.561Z,36.53
2022-09-05T10:00:21.468Z,36.75
2022-09-05T10:04:21.829Z,36.55
2022-09-05T10:10:47.955Z,36.64
2022-09-05T10:13:21.386Z,36.17
2022-09-05T10:17:36.350Z,35.37
2022-09-05T10:21:36.652Z,34.86
2022-09-05T10:25:33.783Z,35.20
2022-09-05T10:29:39.242Z,34.97
2022-09-05T10:35:17.163Z,34.37
2022-09-05T10:37:45.778Z,33.67
2022-09-05T10:41:41.133Z,33.26
2022-09-05T10:45:38.252Z,32.20
2022-09-05T10:49:30.261Z,31.57
2022-09-05T10:53:39.794Z,31.04
2022-09-05T10:57:38.173Z,32.13
2022-09-05T11:02:30.157Z,31.69
2022-09-05T11:05:40.236Z,31.37
2022-09-05T11:09:40.259Z,30.78
2022-09-05T11:13:44.421Z,31.40
2022-09-05T11:17:35.877Z,31.32
2022-09-05T11:21:27.310Z,30.74
2022-09-05T11:25:36.213Z,29.59
2022-09-05T11:29:33.339Z,29.92
2022-09-05T11:39:45.558Z,29.38
2022-09-05T11:40:08.917Z,29.64
2022-09-05T11:42:50.833Z,28.42
2022-09-05T11:46:42.259Z,29.71
2022-09-05T11:51:02.088Z,28.71
2022-09-05T11:55:25.735Z,28.16
2022-09-05T11:59:33.138Z,27.78
2022-09-05T12:03:59.845Z,28.30
2022-09-05T12:08:01.972Z,28.45
2022-09-05T12:12:06.265Z,28.20
2022-09-05T12:16:10.380Z,28.36
2022-09-05T12:20:06.043Z,27.60
2022-09-05T12:25:15.182Z,27.48
2022-09-05T12:29:28.119Z,27.24
2022-09-05T12:33:58.432Z,27.14
2022-09-05T12:40:03.080Z,27.38
2022-09-05T12:41:42.624Z,27.00
2022-09-05T12:45:10.320Z,26.65
2022-09-05T12:49:07.046Z,25.61
2022-09-05T12:52:59.878Z,26.47
2022-09-05T13:00:24.264Z,27.05
2022-09-05T13:03:04.852Z,26.32
2022-09-05T13:05:17.981Z,26.56
2022-09-05T13:09:08.343Z,26.65
2022-09-05T13:14:55.596Z,25.93
2022-09-05T13:17:02.368Z,25.98
2022-09-05T13:20:51.633Z,25.66
2022-09-05T13:24:41.526Z,25.88
2022-09-05T13:28:30.362Z,26.05
2022-09-05T13:38:10.787Z,26.38
2022-09-05T13:38:28.924Z,25.86
2022-09-05T13:40:44.739Z,26.18
2022-09-05T13:44:36.037Z,26.56
2022-09-05T13:49:23.923Z,26.47
2022-09-05T13:52:43.686Z,26.01
2022-09-05T13:56:31.238Z,25.96
2022-09-05T14:01:17.767Z,26.10
2022-09-05T14:05:21.231Z,26.46
2022-09-05T14:13:26.738Z,26.08
2022-09-05T14:21:39.292Z,26.30
2022-09-05T14:25:28.996Z,25.64
2022-09-05T14:29:20.400Z,25.63
2022-09-05T14:37:39.709Z,26.05
2022-09-05T14:37:55.237Z,25.82
2022-09-05T14:41:35.199Z,26.38
2022-09-05T14:45:19.995Z,25.77
2022-09-05T14:49:15.576Z,25.99
2022-09-05T15:01:46.233Z,25.94
2022-09-05T15:02:42.232Z,25.31
2022-09-05T15:04:48.309Z,25.11
2022-09-05T15:10:51.088Z,25.35
2022-09-05T15:12:33.045Z,25.27
2022-09-05T15:16:13.109Z,25.58
2022-09-05T15:20:05.228Z,25.69
2022-09-05T15:23:36.352Z,25.19
2022-09-05T15:27:02.297Z,25.10
2022-09-05T15:30:36.049Z,25.31
2022-09-05T15:34:26.400Z,25.16
2022-09-05T15:37:53.258Z,25.43
2022-09-05T15:41:23.070Z,25.56
2022-09-05T15:45:09.111Z,25.69
2022-09-05T15:48:39.994Z,25.69
2022-09-05T15:52:29.451Z,26.06
2022-09-05T15:56:01.031Z,26.24
2022-09-05T15:59:35.389Z,26.56
2022-09-05T16:04:28.694Z,26.58
2022-09-05T16:10:35.221Z,26.50
2022-09-05T16:11:06.106Z,26.69
2022-09-05T16:14:39.579Z,27.04
2022-09-05T16:23:20.371Z,27.36
2022-09-05T16:23:24.621Z,27.25
2022-09-05T16:25:56.200Z,27.50
2022-09-05T16:29:27.039Z,27.81
2022-09-05T16:32:59.455Z,27.95
2022-09-05T16:36:29.753Z,28.00
2022-09-05T16:40:04.688Z,27.97
2022-09-05T16:43:34.850Z,28.06
2022-09-05T16:47:13.945Z,28.19
2022-09-05T16:50:48.022Z,28.46
2022-09-05T16:54:25.608Z,28.44
2022-09-05T16:58:08.915Z,28.91
2022-09-05T17:02:07.066Z,29.08
2022-09-05T17:05:46.063Z,29.25
2022-09-05T17:09:24.433Z,29.64
2022-09-05T17:12:55.917Z,29.87
2022-09-05T17:16:31.253Z,30.09
2022-09-05T17:20:05.932Z,30.19
2022-09-05T17:29:21.066Z,30.55
2022-09-05T17:29:31.265Z,30.78
2022-09-05T17:35:18.623Z,31.28
2022-09-05T17:38:58.593Z,31.55
2022-09-05T17:42:39.125Z,31.88
2022-09-05T17:46:18.417Z,32.21
2022-09-05T17:49:47.513Z,32.44
2022-09-05T17:53:25.291Z,32.77
2022-09-05T17:56:54.852Z,32.91
2022-09-05T18:01:01.152Z,33.24
2022-09-05T18:04:48.422Z,33.48
2022-09-05T18:08:52.622Z,33.83
2022-09-05T18:13:14.222Z,34.09
2022-09-05T18:16:42.204Z,34.45
2022-09-05T18:20:25.882Z,34.78
2022-09-05T18:24:05.169Z,34.98
2022-09-05T18:28:05.464Z,35.08
2022-09-05T18:32:03.106Z,35.41
2022-09-05T18:35:37.560Z,35.55
2022-09-05T18:39:48.459Z,35.87
2022-09-05T18:43:32.112Z,36.32
2022-09-05T18:47:02.457Z,36.47
2022-09-05T18:50:33.227Z,36.87
2022-09-05T18:54:03.618Z,36.94
2022-09-05T18:57:38.281Z,37.12
2022-09-05T19:01:28.330Z,37.45
2022-09-05T19:04:59.589Z,37.74
2022-09-05T19:08:34.847Z,37.88
2022-09-05T19:12:33.123Z,38.00
2022-09-05T19:16:33.214Z,38.14
2022-09-05T19:20:31.898Z,38.17
2022-09-05T19:24:05.196Z,38.59
2022-09-05T19:30:53.713Z,38.48
2022-09-05T19:37:03.610Z,39.07
2022-09-05T19:37:05.307Z,38.75
2022-09-05T19:40:11.220Z,39.36
2022-09-05T19:47:29.203Z,39.55
2022-09-05T19:47:48.039Z,39.79
2022-09-05T19:50:24.927Z,39.77
2022-09-05T19:54:03.952Z,39.96
2022-09-05T19:57:32.876Z,40.27
2022-09-05T20:01:13.479Z,40.86
2022-09-05T20:04:46.850Z,40.90
2022-09-05T20:08:29.341Z,41.06
2022-09-05T20:11:58.233Z,41.10
2022-09-05T20:15:35.893Z,41.32
2022-09-05T20:19:06.725Z,41.55
2022-09-05T20:22:48.234Z,42.35
2022-09-05T20:26:21.406Z,42.65
2022-09-05T20:29:55.694Z,43.42
2022-09-05T20:33:28.041Z,44.05
2022-09-05T20:42:21.905Z,44.50
2022-09-05T20:43:21.001Z,44.41
2022-09-05T20:44:42.401Z,44.86
2022-09-05T20:53:03.602Z,44.91
2022-09-05T20:54:15.842Z,45.29
2022-09-05T20:55:49.524Z,45.54
2022-09-05T20:59:26.085Z,45.81
2022-09-05T21:03:01.048Z,46.13
2022-09-05T21:06:33.775Z,46.12
2022-09-05T21:10:02.762Z,46.29
2022-09-05T21:13:32.206Z,46.60
2022-09-05T21:17:14.714Z,46.45
2022-09-05T21:20:52.140Z,47.08
2022-09-05T21:24:25.364Z,47.31
2022-09-05T21:28:04.152Z,47.49
2022-09-05T21:31:30.912Z,48.38
2022-09-05T21:34:58.087Z,48.15
2022-09-05T21:38:32.835Z,48.21
2022-09-05T21:42:18.586Z,48.66
2022-09-05T21:47:43.541Z,48.69
2022-09-05T21:49:36.816Z,48.66
2022-09-05T21:53:14.562Z,49.07
2022-09-05T21:59:26.346Z,48.93
2022-09-05T22:00:44.243Z,49.99
2022-09-05T22:04:11.203Z,50.05
2022-09-05T22:07:39.088Z,50.34
2022-09-05T22:11:06.404Z,50.18
2022-09-05T22:14:33.459Z,50.48
2022-09-05T22:18:27.427Z,50.82
2022-09-05T22:21:49.100Z,51.26
2022-09-05T22:25:27.737Z,51.41
2022-09-05T22:28:54.476Z,51.58
2022-09-05T22:32:34.641Z,51.76
2022-09-05T22:36:02.382Z,51.87
2022-09-05T22:39:36.762Z,51.83
2022-09-05T22:43:08.188Z,52.20
2022-09-05T22:46:35.692Z,52.12
2022-09-05T22:50:02.738Z,52.85
2022-09-05T22:53:29.491Z,52.87
2022-09-05T22:56:56.419Z,52.68
2022-09-05T23:00:23.268Z,53.00
2022-09-05T23:03:49.848Z,53.14
2022-09-05T23:07:16.865Z,53.51
2022-09-05T23:10:44.030Z,53.57
2022-09-05T23:14:10.820Z,53.75
2022-09-05T23:17:38.924Z,53.68
2022-09-05T23:21:07.622Z,54.30
2022-09-05T23:24:34.678Z,54.01
2022-09-05T23:28:05.561Z,54.40
2022-09-05T23:31:32.174Z,54.11
2022-09-05T23:34:59.240Z,54.17
2022-09-05T23:38:26.094Z,54.49
2022-09-05T23:41:53.271Z,54.90
2022-09-05T23:45:20.069Z,55.08
2022-09-05T23:48:46.787Z,55.54
2022-09-05T23:52:13.819Z,55.84
2022-09-05T23:55:41.875Z,55.64
2022-09-05T23:59:08.530Z,56.03
